Time;durP1;ratioP1;P1;durP2;ratioP2;P2;SDS_P1;SDS_P2;PMS_P1;PMS_P2;Temp;Humidity;BMP_temperature;BMP_pressure;BME280_temperature;BME280_humidity;BME280_pressure;Samples;Min_cycle;Max_cycle;Signal;HPM_P1;HPM_P2
2022/08/22 00:00:36;;;;;;;34.60;7.20;;;;;;;19.66;76.23;99137.73;109288;1277;22507;-64
2022/08/22 00:03:34;;;;;;;35.40;7.20;;;;;;;19.64;76.37;99137.72;109134;1275;138241;-64
2022/08/22 00:06:07;;;;;;;38.30;8.10;;;;;;;19.63;76.29;99140.13;109231;1276;22459;-64
2022/08/22 00:08:41;;;;;;;33.30;7.60;;;;;;;19.63;76.24;99139.31;109189;1274;139164;-64
2022/08/22 00:11:39;;;;;;;23.80;6.60;;;;;;;19.62;76.26;99138.48;109301;1274;23266;-64
2022/08/22 00:14:12;;;;;;;33.60;6.80;;;;;;;19.62;76.30;99138.80;109249;1274;138187;-64
2022/08/22 00:16:49;;;;;;;31.00;6.20;;;;;;;19.61;76.22;99135.54;109273;1276;22520;-64
2022/08/22 00:19:34;;;;;;;33.90;5.70;;;;;;;19.62;76.33;99139.99;109081;1276;139225;-64
2022/08/22 00:22:04;;;;;;;25.10;6.10;;;;;;;19.61;76.43;99140.29;109254;1276;22466;-64
2022/08/22 00:24:57;;;;;;;29.00;5.70;;;;;;;19.60;76.29;99140.41;109100;1276;22469;-64
2022/08/22 00:27:32;;;;;;;39.20;7.00;;;;;;;19.60;76.39;99139.83;104555;1282;139041;-64
2022/08/22 00:30:07;;;;;;;41.30;7.70;;;;;;;19.58;76.36;99146.30;108650;1282;22592;-64
2022/08/22 00:32:39;;;;;;;28.00;6.90;;;;;;;19.57;76.39;99147.73;108535;1281;138249;-64
2022/08/22 00:35:40;;;;;;;23.90;5.60;;;;;;;19.56;76.45;99149.12;108678;1281;22612;-64
2022/08/22 00:38:16;;;;;;;20.80;5.50;;;;;;;19.55;76.49;99154.26;108384;1281;138415;-64
2022/08/22 00:40:54;;;;;;;42.50;7.00;;;;;;;19.54;76.48;99158.41;108570;1281;22923;-64
2022/08/22 00:43:42;;;;;;;25.50;6.60;;;;;;;19.53;76.53;99155.36;108429;1281;139692;-64
2022/08/22 00:46:21;;;;;;;31.70;5.70;;;;;;;19.52;76.54;99159.81;108526;1282;22548;-64
2022/08/22 00:48:51;;;;;;;34.20;7.10;;;;;;;19.49;76.65;99160.27;108536;1281;23197;-64
2022/08/22 00:51:36;;;;;;;24.10;6.20;;;;;;;19.46;76.64;99158.49;108502;1281;138274;-64
2022/08/22 00:54:41;;;;;;;27.10;6.40;;;;;;;19.43;76.81;99159.51;108602;1281;22502;-64
2022/08/22 00:57:32;;;;;;;39.70;7.80;;;;;;;19.41;76.76;99159.91;108551;1281;138254;-64
2022/08/22 01:00:04;;;;;;;31.80;6.40;;;;;;;19.36;76.81;99158.52;108737;1281;22554;-64
2022/08/22 01:02:56;;;;;;;28.40;5.90;;;;;;;19.33;76.94;99153.80;108590;1281;139916;-65
2022/08/22 01:05:51;;;;;;;27.40;6.10;;;;;;;19.30;76.99;99154.07;108712;1277;22578;-64
2022/08/22 01:08:55;;;;;;;37.40;6.30;;;;;;;19.25;77.06;99154.33;105022;1275;139272;-64
2022/08/22 01:11:25;;;;;;;26.30;6.00;;;;;;;19.24;77.24;99154.42;105036;1275;22601;-64
2022/08/22 01:14:07;;;;;;;29.50;6.50;;;;;;;19.23;77.35;99154.56;104882;1277;138428;-64
2022/08/22 01:16:54;;;;;;;35.80;7.40;;;;;;;19.21;77.33;99154.17;104838;1277;23870;-64
2022/08/22 01:19:21;;;;;;;;;;;;;;;19.18;77.33;99154.13;104786;1277;139286;-63
2022/08/22 01:21:57;;;;;;;27.00;6.20;;;;;;;19.13;77.48;99155.33;104841;1277;24254;-63
2022/08/22 01:24:30;;;;;;;21.50;5.70;;;;;;;19.10;77.66;99165.58;104901;1277;22585;-63
2022/08/22 01:27:22;;;;;;;29.80;6.10;;;;;;;19.06;77.72;99158.23;109134;1276;139193;-64
2022/08/22 01:30:15;;;;;;;31.20;6.60;;;;;;;19.04;77.71;99156.88;109175;1275;22526;-64
2022/08/22 01:33:04;;;;;;;40.20;7.50;;;;;;;19.01;77.64;99163.46;109171;1274;138340;-64
2022/08/22 01:35:49;;;;;;;33.90;6.40;;;;;;;19.01;77.66;99161.45;109250;1276;22408;-64
2022/08/22 01:38:32;;;;;;;27.30;6.40;;;;;;;19.00;77.63;99155.73;109287;1275;138805;-64
2022/08/22 01:41:30;;;;;;;33.00;7.70;;;;;;;19.00;77.53;99156.83;108995;1277;22539;-64
2022/08/22 01:44:06;;;;;;;24.10;5.70;;;;;;;19.00;77.52;99152.91;109207;1274;139026;-64
2022/08/22 01:47:06;;;;;;;26.90;6.70;;;;;;;19.00;77.50;99155.20;109218;1276;22475;-64
2022/08/22 01:49:33;;;;;;;22.20;5.50;;;;;;;19.00;77.59;99155.45;109310;1274;140061;-64
2022/08/22 01:52:05;;;;;;;23.80;6.20;;;;;;;18.99;77.56;99161.61;109374;1274;22466;-64
2022/08/22 01:54:37;;;;;;;44.90;6.90;;;;;;;18.98;77.57;99156.50;109313;1275;23730;-65
2022/08/22 01:57:06;;;;;;;29.90;6.00;;;;;;;18.97;77.46;99160.33;109087;1277;138224;-64
2022/08/22 01:59:45;;;;;;;25.00;6.50;;;;;;;18.95;77.56;99162.20;109269;1276;23122;-64
2022/08/22 02:02:33;;;;;;;33.50;6.40;;;;;;;18.95;77.46;99161.66;109122;1277;139368;-64
2022/08/22 02:05:15;;;;;;;25.20;5.20;;;;;;;18.95;77.50;99164.55;109335;1276;22446;-64
2022/08/22 02:07:52;;;;;;;25.80;5.70;;;;;;;18.93;77.46;99163.69;109122;1274;138515;-64
2022/08/22 02:10:21;;;;;;;27.20;6.10;;;;;;;18.91;77.49;99167.62;109216;1274;23215;-64
2022/08/22 02:13:05;;;;;;;20.90;5.60;;;;;;;18.89;77.52;99162.85;109218;1277;23490;-64
2022/08/22 02:15:38;;;;;;;23.20;6.00;;;;;;;18.84;77.64;99164.98;109107;1274;138949;-64
2022/08/22 02:18:05;;;;;;;34.60;6.90;;;;;;;18.81;77.72;99172.95;109354;1274;22435;-64
2022/08/22 02:20:38;;;;;;;30.00;6.50;;;;;;;18.79;77.78;99177.04;109169;1274;140411;-64
2022/08/22 02:23:04;;;;;;;27.30;6.60;;;;;;;18.75;77.71;99175.84;109248;1277;22406;-64
2022/08/22 02:26:12;;;;;;;30.80;7.20;;;;;;;18.69;77.77;99178.81;109166;1276;138396;-64
2022/08/22 02:28:59;;;;;;;27.60;6.60;;;;;;;18.63;77.82;99173.52;108448;1284;22722;-64
2022/08/22 02:32:06;;;;;;;27.00;7.00;;;;;;;18.58;77.82;99175.61;108241;1284;138811;-64
2022/08/22 02:34:39;;;;;;;34.60;7.20;;;;;;;18.53;77.84;99181.80;108165;1284;22436;-64
2022/08/22 02:37:28;;;;;;;29.20;6.50;;;;;;;18.48;77.83;99184.45;108161;1285;23373;-64
2022/08/22 02:40:20;;;;;;;21.30;6.50;;;;;;;18.44;77.98;99177.64;108316;1285;22668;-64
2022/08/22 02:43:11;;;;;;;30.20;6.20;;;;;;;18.41;77.96;99180.52;108222;1285;23170;-64
2022/08/22 02:46:22;;;;;;;34.90;5.70;;;;;;;18.41;77.95;99190.48;108310;1284;138214;-64
2022/08/22 02:49:11;;;;;;;22.00;5.50;;;;;;;18.39;77.91;99191.18;107668;1290;22443;-65
2022/08/22 02:51:46;;;;;;;26.50;5.50;;;;;;;18.38;77.99;99190.82;107651;1289;139452;-64
2022/08/22 02:54:27;;;;;;;31.80;6.20;;;;;;;18.38;77.94;99192.08;107617;1289;22486;-65
2022/08/22 02:57:37;;;;;;;31.00;5.90;;;;;;;18.36;77.85;99188.08;107400;1291;138838;-64
2022/08/22 03:00:26;;;;;;;26.90;6.10;;;;;;;18.36;77.81;99188.60;107569;1289;22538;-64
2022/08/22 03:03:16;;;;;;;30.40;5.80;;;;;;;18.35;77.74;99193.30;108019;1287;22543;-64
2022/08/22 03:05:43;;;;;;;18.60;6.30;;;;;;;18.34;77.49;99200.89;107923;1288;22307;-64
2022/08/22 03:08:15;;;;;;;30.60;6.20;;;;;;;18.32;77.43;99200.63;107916;1288;23222;-65
2022/08/22 03:10:52;;;;;;;27.60;5.80;;;;;;;18.31;77.41;99198.73;107724;1290;23206;-64
2022/08/22 03:13:46;;;;;;;25.30;6.20;;;;;;;18.29;77.42;99196.56;107764;1288;139360;-64
2022/08/22 03:16:17;;;;;;;21.60;4.70;;;;;;;18.29;77.32;99199.88;107907;1288;23221;-64
2022/08/22 03:18:53;;;;;;;25.70;5.80;;;;;;;18.29;77.33;99195.52;107994;1288;22702;-64
2022/08/22 03:21:22;;;;;;;17.70;4.90;;;;;;;18.30;77.27;99202.95;107761;1288;138397;-64
2022/08/22 03:24:15;;;;;;;28.30;5.80;;;;;;;18.31;77.23;99204.03;107768;1282;22623;-64
2022/08/22 03:26:44;;;;;;;30.20;6.70;;;;;;;18.31;76.99;99202.39;108391;1281;139530;-64
2022/08/22 03:29:32;;;;;;;31.00;5.40;;;;;;;18.31;76.94;99206.31;108581;1282;22519;-64
2022/08/22 03:32:10;;;;;;;21.50;6.30;;;;;;;18.32;76.81;99211.34;108314;1281;139366;-64
2022/08/22 03:34:37;;;;;;;29.30;6.00;;;;;;;18.33;76.81;99215.80;108531;1283;22489;-64
2022/08/22 03:37:24;;;;;;;26.40;6.50;;;;;;;18.35;76.79;99217.41;108623;1276;22580;-64
2022/08/22 03:40:19;;;;;;;17.20;4.90;;;;;;;18.36;76.59;99223.45;107881;1276;23216;-64
2022/08/22 03:42:59;;;;;;;21.40;5.30;;;;;;;18.38;76.46;99219.11;109269;1276;22443;-64
2022/08/22 03:46:03;;;;;;;20.40;5.50;;;;;;;18.38;76.24;99217.71;109144;1276;138515;-64
2022/08/22 03:48:42;;;;;;;23.70;6.40;;;;;;;18.38;75.95;99216.84;109215;1276;22518;-64
2022/08/22 03:51:54;;;;;;;30.70;6.60;;;;;;;18.41;75.82;99229.58;108920;1277;139390;-64
2022/08/22 03:54:38;;;;;;;18.80;4.70;;;;;;;18.41;75.72;99229.74;108552;1280;22509;-64
2022/08/22 03:57:23;;;;;;;17.10;4.90;;;;;;;18.42;75.69;99228.40;108690;1281;138250;-64
2022/08/22 04:00:09;;;;;;;22.80;5.60;;;;;;;18.44;75.44;99226.95;108895;1280;22761;-64
2022/08/22 04:03:15;;;;;;;36.60;5.20;;;;;;;18.47;75.18;99237.00;108668;1280;139118;-64
2022/08/22 04:06:17;;;;;;;21.50;5.30;;;;;;;18.49;74.75;99237.19;107870;1288;23148;-64
2022/08/22 04:08:50;;;;;;;21.90;5.80;;;;;;;18.52;74.52;99236.16;107869;1287;138542;-64
2022/08/22 04:11:38;;;;;;;23.10;5.20;;;;;;;18.56;73.86;99237.29;108094;1287;22533;-64
2022/08/22 04:14:26;;;;;;;22.10;5.70;;;;;;;18.61;73.43;99234.45;107924;1285;138710;-64
2022/08/22 04:17:31;;;;;;;19.60;5.10;;;;;;;18.68;72.87;99237.92;108074;1286;22316;-64
2022/08/22 04:20:04;;;;;;;28.50;5.60;;;;;;;18.75;72.22;99238.34;108024;1286;140300;-64
2022/08/22 04:22:43;;;;;;;31.80;5.30;;;;;;;18.81;72.07;99243.19;108099;1287;22731;-64
2022/08/22 04:25:16;;;;;;;23.80;5.40;;;;;;;18.86;71.65;99241.93;108113;1287;22512;-64
2022/08/22 04:27:59;;;;;;;18.50;4.60;;;;;;;18.93;71.07;99246.88;107997;1287;22553;-64
2022/08/22 04:30:31;;;;;;;15.30;4.80;;;;;;;18.99;70.96;99245.80;108161;1282;23425;-64
2022/08/22 04:33:13;;;;;;;24.80;5.30;;;;;;;19.06;70.69;99248.02;108282;1282;139972;-64
2022/08/22 04:36:03;;;;;;;19.90;6.20;;;;;;;19.14;70.51;99249.58;108560;1282;22376;-64
2022/08/22 04:38:31;;;;;;;21.90;5.70;;;;;;;19.21;70.38;99254.42;108391;1282;139182;-64
2022/08/22 04:41:11;;;;;;;18.40;5.90;;;;;;;19.28;70.29;99253.13;109174;1276;24287;-64
2022/08/22 04:43:59;;;;;;;23.60;4.50;;;;;;;19.37;70.06;99245.63;109128;1276;138657;-64
2022/08/22 04:46:31;;;;;;;20.70;4.50;;;;;;;19.47;69.83;99243.61;109188;1276;22507;-64
2022/08/22 04:49:33;;;;;;;28.40;5.00;;;;;;;19.57;69.49;99244.39;109365;1276;22451;-65
2022/08/22 04:52:39;;;;;;;20.10;5.00;;;;;;;19.67;69.04;99239.73;109198;1276;22564;-65
2022/08/22 04:55:28;;;;;;;20.10;4.70;;;;;;;19.82;68.84;99247.34;109203;1276;22310;-64
2022/08/22 04:58:25;;;;;;;21.80;4.80;;;;;;;19.99;68.45;99246.17;109065;1276;22461;-64
2022/08/22 05:01:34;;;;;;;19.80;4.70;;;;;;;20.22;67.49;99250.98;109114;1277;23626;-64
2022/08/22 05:04:05;;;;;;;21.50;6.00;;;;;;;20.49;66.52;99248.93;109007;1276;22602;-65
2022/08/22 05:06:33;;;;;;;16.90;4.40;;;;;;;20.68;66.08;99247.67;109241;1276;22550;-64
2022/08/22 05:09:03;;;;;;;16.50;4.80;;;;;;;20.85;65.35;99247.77;109069;1275;138237;-65
2022/08/22 05:11:30;;;;;;;17.40;4.70;;;;;;;21.02;64.58;99246.73;109118;1276;22593;-65
2022/08/22 05:14:03;;;;;;;16.10;4.80;;;;;;;21.17;63.78;99250.19;109118;1276;138573;-64
2022/08/22 05:16:37;;;;;;;20.20;4.70;;;;;;;21.34;62.66;99251.77;106638;1276;22590;-67
2022/08/22 05:19:30;;;;;;;20.20;5.90;;;;;;;21.50;61.86;99252.77;109346;1275;23266;-68
2022/08/22 05:21:58;;;;;;;24.80;5.60;;;;;;;21.66;61.43;99255.23;109090;1276;22480;-68
2022/08/22 05:24:35;;;;;;;21.80;5.10;;;;;;;21.82;60.83;99253.20;109018;1277;22480;-68
2022/08/22 05:27:26;;;;;;;18.20;4.40;;;;;;;21.96;60.24;99256.84;108833;1276;138972;-68
2022/08/22 05:29:58;;;;;;;20.20;4.50;;;;;;;22.12;59.28;99256.73;109069;1277;22414;-68
2022/08/22 05:32:30;;;;;;;17.80;5.30;;;;;;;22.23;58.60;99258.55;108945;1276;138259;-68
2022/08/22 05:34:59;;;;;;;23.60;5.00;;;;;;;22.30;58.18;99257.56;109044;1277;22438;-68
2022/08/22 05:37:47;;;;;;;24.60;5.00;;;;;;;22.30;57.83;99260.86;108956;1277;137706;-67
2022/08/22 05:40:22;;;;;;;20.60;5.10;;;;;;;22.21;57.67;99261.50;109170;1276;22413;-68
2022/08/22 05:42:49;;;;;;;17.60;5.10;;;;;;;22.08;57.84;99262.61;108974;1276;22434;-67
2022/08/22 05:45:16;;;;;;;17.00;4.20;;;;;;;21.95;58.37;99262.01;108917;1276;138864;-67
2022/08/22 05:48:10;;;;;;;19.40;5.00;;;;;;;21.84;58.46;99266.20;108960;1276;23346;-67
2022/08/22 05:50:59;;;;;;;30.70;4.70;;;;;;;21.71;58.86;99263.02;109080;1276;137842;-68
2022/08/22 05:53:35;;;;;;;22.50;4.50;;;;;;;21.59;59.42;99265.01;109031;1276;22532;-67
2022/08/22 05:56:04;;;;;;;23.10;5.20;;;;;;;21.49;59.90;99270.73;108898;1278;138374;-69
2022/08/22 05:58:31;;;;;;;11.30;3.90;;;;;;;21.42;59.96;99269.88;109130;1276;22606;-65
2022/08/22 06:01:33;;;;;;;19.50;4.50;;;;;;;21.36;60.33;99267.73;109093;1277;24574;-65
2022/08/22 06:04:10;;;;;;;21.60;5.10;;;;;;;21.32;60.34;99266.02;108417;1284;23268;-65
2022/08/22 06:06:44;;;;;;;22.40;5.30;;;;;;;21.31;60.03;99266.92;108428;1284;22428;-65
2022/08/22 06:09:17;;;;;;;25.10;6.70;;;;;;;21.29;59.99;99261.88;108110;1284;138142;-65
2022/08/22 06:11:53;;;;;;;21.50;6.10;;;;;;;21.29;59.32;99262.39;108364;1284;22597;-65
2022/08/22 06:14:53;;;;;;;26.00;5.80;;;;;;;21.26;59.16;99264.48;108269;1282;139206;-65
2022/08/22 06:17:24;;;;;;;30.50;5.90;;;;;;;21.22;59.10;99272.33;107829;1288;22685;-65
2022/08/22 06:19:51;;;;;;;18.10;5.60;;;;;;;21.18;59.01;99266.71;107328;1290;137827;-65
2022/08/22 06:22:28;;;;;;;24.70;5.50;;;;;;;21.16;59.33;99263.31;107445;1290;22581;-66
2022/08/22 06:24:56;;;;;;;14.90;4.00;;;;;;;21.18;59.39;99264.42;107667;1289;22641;-65
2022/08/22 06:27:25;;;;;;;24.20;4.50;;;;;;;21.21;59.44;99262.63;107571;1290;138584;-65
2022/08/22 06:29:58;;;;;;;21.90;5.30;;;;;;;21.25;59.30;99262.17;107675;1289;23311;-65
2022/08/22 06:32:27;;;;;;;21.90;4.00;;;;;;;21.31;59.13;99265.81;107574;1290;138157;-65
2022/08/22 06:35:22;;;;;;;25.10;4.70;;;;;;;21.38;58.38;99267.11;107490;1290;22604;-66
2022/08/22 06:37:49;;;;;;;19.40;4.10;;;;;;;21.44;57.94;99269.84;107585;1290;138626;-65
2022/08/22 06:40:16;;;;;;;21.80;4.80;;;;;;;21.50;57.94;99264.27;107787;1285;22704;-65
2022/08/22 06:42:46;;;;;;;24.60;5.20;;;;;;;21.56;57.63;99265.21;108398;1284;23095;-65
2022/08/22 06:45:36;;;;;;;17.60;4.10;;;;;;;21.61;57.49;99265.41;108287;1284;138775;-65
2022/08/22 06:48:06;;;;;;;19.60;4.50;;;;;;;21.66;57.30;99261.38;108343;1284;22546;-65
2022/08/22 06:50:37;;;;;;;24.40;4.40;;;;;;;21.70;57.38;99260.98;108292;1284;138225;-65
2022/08/22 06:53:05;;;;;;;21.00;4.30;;;;;;;21.78;57.21;99259.46;108293;1284;22462;-65
2022/08/22 06:55:32;;;;;;;18.90;5.20;;;;;;;21.84;57.24;99262.00;108950;1277;139819;-65
2022/08/22 06:58:16;;;;;;;19.60;4.30;;;;;;;21.91;57.24;99257.35;109084;1276;22521;-65
2022/08/22 07:00:43;;;;;;;15.30;4.30;;;;;;;21.97;57.53;99254.70;109138;1278;22535;-66
2022/08/22 07:03:32;;;;;;;24.10;4.20;;;;;;;22.03;57.12;99248.48;108972;1276;138698;-65
2022/08/22 07:05:58;;;;;;;23.90;5.40;;;;;;;22.12;56.60;99249.11;109173;1276;22594;-65
2022/08/22 07:08:25;;;;;;;12.30;3.40;;;;;;;22.19;56.45;99251.44;108996;1277;138286;-65
2022/08/22 07:11:16;;;;;;;21.40;3.80;;;;;;;22.25;55.90;99259.11;109047;1276;22551;-65
2022/08/22 07:13:47;;;;;;;24.60;4.30;;;;;;;22.34;55.28;99263.71;108958;1277;139143;-65
2022/08/22 07:16:14;;;;;;;22.60;4.70;;;;;;;22.41;54.59;99262.30;109042;1278;22450;-65
2022/08/22 07:18:46;;;;;;;16.80;4.40;;;;;;;22.50;54.43;99260.41;109214;1276;22554;-64
2022/08/22 07:21:40;;;;;;;18.20;4.20;;;;;;;22.61;53.69;99254.02;109017;1274;139303;-65
2022/08/22 07:24:07;;;;;;;17.40;4.10;;;;;;;22.73;53.71;99255.65;109190;1276;22295;-65
2022/08/22 07:26:51;;;;;;;17.10;3.70;;;;;;;22.82;52.98;99251.27;108941;1278;138321;-65
2022/08/22 07:29:39;;;;;;;19.90;4.20;;;;;;;22.90;53.22;99248.05;109030;1278;22617;-65
2022/08/22 07:32:10;;;;;;;25.20;4.20;;;;;;;22.98;53.50;99245.85;109149;1277;137892;-66
2022/08/22 07:38:08;;;;;;;20.30;4.30;;;;;;;23.15;53.10;99244.91;101663;1311;545226;-66
2022/08/22 07:40:41;;;;;;;14.10;3.80;;;;;;;23.20;53.18;99246.60;108129;1287;22549;-67
2022/08/22 07:43:12;;;;;;;21.00;4.00;;;;;;;23.28;52.61;99245.23;107977;1287;22465;-67
2022/08/22 07:45:46;;;;;;;18.50;4.20;;;;;;;23.35;52.58;99244.04;107873;1289;137055;-66
2022/08/22 07:48:29;;;;;;;18.10;4.20;;;;;;;23.41;52.65;99239.23;107991;1287;22537;-66
2022/08/22 07:51:54;;;;;;;18.90;5.50;;;;;;;23.48;52.32;99237.13;106830;1285;1263695;-66
2022/08/22 07:54:44;;;;;;;24.80;4.50;;;;;;;23.59;52.62;99242.41;107553;1291;22471;-64
2022/08/22 07:57:14;;;;;;;20.20;4.80;;;;;;;23.68;51.43;99237.69;107362;1290;138844;-66
2022/08/22 07:59:49;;;;;;;22.70;4.60;;;;;;;23.72;50.85;99235.98;107908;1287;22699;-66
2022/08/22 08:02:16;;;;;;;29.20;4.20;;;;;;;23.76;50.69;99233.81;107744;1289;137073;-66
2022/08/22 08:04:43;;;;;;;20.20;4.60;;;;;;;23.79;50.92;99233.58;108364;1283;22438;-66
2022/08/22 08:07:10;;;;;;;25.70;5.20;;;;;;;23.84;50.88;99231.34;108655;1280;22432;-67
2022/08/22 08:09:49;;;;;;;26.60;4.50;;;;;;;23.89;50.73;99231.33;108226;1283;137092;-67
2022/08/22 08:12:15;;;;;;;17.20;5.10;;;;;;;23.94;50.83;99228.52;108487;1281;22503;-66
2022/08/22 08:14:43;;;;;;;19.90;4.80;;;;;;;23.99;50.97;99233.73;108285;1283;138540;-66
2022/08/22 08:17:21;;;;;;;17.00;4.80;;;;;;;24.03;50.47;99233.08;108498;1282;22364;-66
2022/08/22 08:19:49;;;;;;;24.00;5.40;;;;;;;24.07;50.63;99233.11;108485;1283;137824;-66
2022/08/22 08:22:20;;;;;;;21.40;5.60;;;;;;;24.12;50.33;99231.30;108475;1283;22554;-64
2022/08/22 08:24:47;;;;;;;21.90;4.70;;;;;;;24.16;49.79;99229.79;108659;1281;23609;-64
2022/08/22 08:30:08;;;;;;;15.70;5.30;;;;;;;24.29;50.68;99228.10;108716;1276;22485;-64
2022/08/22 08:32:41;;;;;;;20.40;5.40;;;;;;;24.34;50.25;99231.66;108961;1276;138079;-64
2022/08/22 08:35:17;;;;;;;24.30;6.50;;;;;;;24.37;50.31;99232.92;109016;1277;22593;-55
2022/08/22 08:37:49;;;;;;;24.50;6.30;;;;;;;24.36;50.58;99228.36;108889;1277;137934;-64
2022/08/22 08:40:31;;;;;;;13.60;4.90;;;;;;;24.35;51.27;99225.65;108976;1277;22504;-65
2022/08/22 08:43:26;;;;;;;21.50;5.30;;;;;;;24.39;51.15;99230.02;109026;1277;22458;-66
2022/08/22 08:46:35;;;;;;;20.40;5.40;;;;;;;24.43;50.58;99230.53;109083;1277;22420;-66
2022/08/22 08:49:13;;;;;;;26.60;5.60;;;;;;;24.49;50.59;99230.16;108900;1277;22434;-65
2022/08/22 08:51:53;;;;;;;27.90;5.40;;;;;;;24.51;50.45;99229.66;108900;1277;136821;-67
2022/08/22 08:54:54;;;;;;;18.20;4.70;;;;;;;24.52;50.03;99227.92;109119;1277;23302;-65
2022/08/22 08:57:28;;;;;;;23.40;5.60;;;;;;;24.55;49.28;99228.05;109003;1277;137223;-67
2022/08/22 09:00:13;;;;;;;17.40;4.80;;;;;;;24.60;49.48;99225.19;109116;1277;22365;-67
2022/08/22 09:03:06;;;;;;;24.50;4.70;;;;;;;24.70;48.99;99232.02;108881;1277;137273;-66
2022/08/22 09:05:45;;;;;;;28.40;4.90;;;;;;;24.76;48.02;99233.23;108908;1277;23200;-66
2022/08/22 09:08:44;;;;;;;27.70;5.10;;;;;;;24.80;48.39;99228.16;108991;1277;137232;-65
2022/08/22 09:11:49;;;;;;;26.90;4.00;;;;;;;24.85;48.30;99231.08;108967;1277;22273;-66
2022/08/22 09:14:42;;;;;;;18.10;4.70;;;;;;;24.92;47.52;99229.99;108976;1277;137781;-66
2022/08/22 09:17:31;;;;;;;20.20;4.70;;;;;;;24.96;47.29;99223.42;109051;1277;22556;-66
2022/08/22 09:20:03;;;;;;;25.60;4.90;;;;;;;25.03;47.62;99224.54;108919;1277;137418;-65
2022/08/22 09:23:08;;;;;;;17.20;4.90;;;;;;;25.09;47.71;99217.68;109027;1277;23625;-66
2022/08/22 09:26:28;;;;;;;19.40;5.10;;;;;;;25.16;47.52;99215.38;108856;1277;138417;-66
2022/08/22 09:29:03;;;;;;;20.40;5.00;;;;;;;25.24;47.11;99216.29;108468;1282;23683;-66
2022/08/22 09:31:32;;;;;;;23.10;5.20;;;;;;;25.32;46.50;99213.19;108270;1283;138505;-66
2022/08/22 09:34:34;;;;;;;19.30;5.20;;;;;;;25.37;46.83;99213.70;108542;1283;22517;-66
2022/08/22 09:37:17;;;;;;;21.40;4.40;;;;;;;25.44;46.93;99209.71;105070;1284;24312;-66
2022/08/22 09:40:12;;;;;;;26.30;4.40;;;;;;;25.52;46.00;99207.44;104103;1283;25567;-64
2022/08/22 09:42:58;;;;;;;21.90;4.60;;;;;;;25.59;45.87;99206.38;108411;1284;22477;-66
2022/08/22 09:45:41;;;;;;;31.30;6.30;;;;;;;25.64;46.11;99209.48;108282;1284;138234;-66
2022/08/22 09:48:20;;;;;;;35.60;7.10;;;;;;;25.68;44.98;99209.96;108409;1284;22482;-65
2022/08/22 09:50:51;;;;;;;32.10;6.10;;;;;;;25.77;43.96;99204.88;108245;1283;138187;-65
2022/08/22 09:53:56;;;;;;;32.40;6.20;;;;;;;25.85;43.09;99208.80;108381;1283;22570;-65
2022/08/22 09:56:37;;;;;;;27.30;5.60;;;;;;;25.93;41.77;99208.33;108127;1284;137272;-65
2022/08/22 09:59:22;;;;;;;37.10;6.00;;;;;;;25.98;41.91;99204.52;108349;1281;22296;-65
2022/08/22 10:01:57;;;;;;;37.50;5.90;;;;;;;26.04;41.66;99206.70;108705;1279;138287;-65
2022/08/22 10:04:42;;;;;;;33.90;5.70;;;;;;;26.10;41.14;99207.87;108988;1277;22524;-65
2022/08/22 10:07:23;;;;;;;39.60;7.00;;;;;;;26.17;41.12;99212.55;108989;1277;22546;-66
2022/08/22 10:10:08;;;;;;;42.20;6.90;;;;;;;26.22;41.17;99211.77;108893;1279;23305;-65
2022/08/22 10:12:48;;;;;;;43.00;6.80;;;;;;;26.27;42.11;99212.28;108877;1277;22493;-65
2022/08/22 10:15:30;;;;;;;52.90;5.90;;;;;;;26.33;42.00;99217.03;108723;1279;137846;-65
2022/08/22 10:18:15;;;;;;;31.30;6.00;;;;;;;26.38;41.57;99215.16;108869;1279;22449;-65
2022/08/22 10:21:07;;;;;;;45.80;19.50;;;;;;;26.42;41.68;99214.88;108816;1278;137342;-69
2022/08/22 10:23:47;;;;;;;40.20;6.00;;;;;;;26.46;42.21;99211.52;108999;1278;22476;-65
2022/08/22 10:26:28;;;;;;;43.50;7.40;;;;;;;26.47;42.19;99216.49;108676;1279;137968;-69
2022/08/22 10:29:15;;;;;;;39.00;7.10;;;;;;;26.48;42.08;99223.06;108926;1277;22472;-69
2022/08/22 10:31:48;;;;;;;56.60;6.00;;;;;;;26.51;41.89;99220.40;108681;1279;138691;-68
2022/08/22 10:34:33;;;;;;;47.30;6.70;;;;;;;26.52;42.01;99224.90;108742;1279;23351;-68
2022/08/22 10:37:21;;;;;;;51.20;7.30;;;;;;;26.53;41.76;99227.08;108808;1279;22443;-69
2022/08/22 10:40:13;;;;;;;236.10;174.40;;;;;;;26.55;41.66;99221.42;108849;1277;22507;-65
2022/08/22 10:42:46;;;;;;;51.90;9.90;;;;;;;26.55;41.73;99222.38;108763;1276;22488;-65
2022/08/22 10:45:17;;;;;;;41.70;7.40;;;;;;;26.54;42.56;99222.55;108756;1277;137608;-66
2022/08/22 10:48:05;;;;;;;39.20;7.30;;;;;;;26.58;42.58;99224.27;109143;1277;23146;-66
2022/08/22 10:51:03;;;;;;;49.50;9.10;;;;;;;26.63;42.25;99226.77;109026;1276;137318;-66
2022/08/22 10:54:07;;;;;;;343.50;262.40;;;;;;;26.66;41.82;99228.43;109006;1276;24116;-68
2022/08/22 10:56:41;;;;;;;61.00;11.40;;;;;;;26.68;41.92;99230.46;108159;1284;138926;-66
2022/08/22 10:59:15;;;;;;;36.70;7.00;;;;;;;26.69;42.10;99229.59;108435;1283;22478;-65
2022/08/22 11:02:11;;;;;;;37.60;7.90;;;;;;;26.69;42.70;99231.91;108306;1283;138319;-65
2022/08/22 11:05:06;;;;;;;37.20;6.60;;;;;;;26.71;42.64;99229.85;108213;1284;22441;-69
2022/08/22 11:07:59;;;;;;;103.30;60.50;;;;;;;26.72;43.30;99232.84;108343;1283;138843;-71
2022/08/22 11:10:33;;;;;;;55.40;8.20;;;;;;;26.75;43.49;99231.94;108396;1283;23820;-68
2022/08/22 11:13:15;;;;;;;37.30;8.00;;;;;;;26.78;42.61;99227.11;108560;1282;22426;-67
2022/08/22 11:15:51;;;;;;;44.10;9.50;;;;;;;26.79;42.93;99229.69;107593;1282;22637;-67
2022/08/22 11:18:46;;;;;;;59.30;11.60;;;;;;;26.80;43.12;99230.34;104184;1283;26032;-70
2022/08/22 11:21:44;;;;;;;99.90;44.40;;;;;;;26.83;43.38;99226.64;103971;1285;138023;-65
2022/08/22 11:24:29;;;;;;;60.70;12.40;;;;;;;26.86;43.62;99228.36;108497;1282;22437;-68
2022/08/22 11:27:13;;;;;;;45.30;9.20;;;;;;;26.90;43.09;99225.39;108268;1282;138164;-68
2022/08/22 11:29:57;;;;;;;62.10;10.50;;;;;;;26.93;43.53;99222.89;108375;1284;22488;-68
2022/08/22 11:33:04;;;;;;;41.90;8.30;;;;;;;26.95;43.74;99221.77;108368;1276;137699;-68
2022/08/22 11:35:54;;;;;;;44.80;8.10;;;;;;;27.01;43.88;99222.56;108879;1277;22529;-68
2022/08/22 11:38:40;;;;;;;51.40;9.00;;;;;;;27.03;43.71;99220.38;108888;1277;138457;-68
2022/08/22 11:41:22;;;;;;;62.00;9.90;;;;;;;27.06;44.43;99222.66;109065;1277;23229;-67
2022/08/22 11:44:06;;;;;;;74.10;23.70;;;;;;;27.10;44.05;99221.52;108756;1278;138812;-69
2022/08/22 11:46:47;;;;;;;46.20;11.10;;;;;;;27.15;43.98;99229.02;109120;1276;22435;-68
2022/08/22 11:49:26;;;;;;;53.70;9.50;;;;;;;27.22;43.28;99224.34;108958;1278;23303;-67
2022/08/22 11:52:05;;;;;;;56.60;10.10;;;;;;;27.24;42.77;99227.59;109077;1277;22408;-67
2022/08/22 11:55:11;;;;;;;54.80;9.30;;;;;;;27.26;43.02;99223.85;108999;1276;22472;-70
2022/08/22 11:57:39;;;;;;;67.20;15.00;;;;;;;27.27;43.09;99226.81;108908;1278;138170;-76
2022/08/22 12:00:37;;;;;;;61.20;10.10;;;;;;;27.29;41.97;99224.45;109026;1277;22544;-69
2022/08/22 12:03:22;;;;;;;60.40;10.80;;;;;;;27.33;41.82;99220.20;108780;1278;138815;-71
2022/08/22 12:05:55;;;;;;;59.60;9.80;;;;;;;27.35;41.16;99221.60;109108;1277;22296;-70
2022/08/22 12:08:29;;;;;;;65.00;9.80;;;;;;;27.37;41.47;99221.23;108982;1277;137706;-72
2022/08/22 12:11:03;;;;;;;65.90;10.50;;;;;;;27.40;41.21;99217.66;109118;1276;22573;-70
2022/08/22 12:13:38;;;;;;;66.90;10.80;;;;;;;27.42;40.99;99219.29;108883;1276;139054;-72
2022/08/22 12:16:13;;;;;;;114.00;39.30;;;;;;;27.46;40.44;99218.95;107419;1277;24269;-73
2022/08/22 12:19:08;;;;;;;71.10;12.40;;;;;;;27.49;40.39;99213.95;104510;1277;24109;-70
2022/08/22 12:21:44;;;;;;;80.30;13.10;;;;;;;27.53;39.62;99220.17;104503;1278;138945;-71
2022/08/22 12:24:41;;;;;;;75.70;12.00;;;;;;;27.55;39.52;99219.48;104684;1279;22564;-71
2022/08/22 12:27:20;;;;;;;53.00;11.20;;;;;;;27.56;39.77;99218.60;104614;1278;138179;-70